Ryosui — JD4228 — position and weather

sailwx.info

Track history (hours):
 
Tides and Currents Weather Stations Pressure Air Temp Water Temp Dewpoint Dewpoint Depression Visibility Wind Speed Wind Dir Waves Ship Positions

Ryosui

Last reported at 2018-Feb-24 19:34 UTC. Time now 2018-Feb-25 13:21 UTC.
Position N 35°04' E 140°20'.

Length 67 m; draft 4.8 m.

Type: Tanker. MMSI: 431009833.

Date/timePositionNaut miles runAvg speedWind from/ knotsBaromVisibWave heightAir tempDewpointWater temp
2018-Feb-24 19:34N 35°04' E 140°20'512.6
2018-Feb-24 19:08N 35°01' E 140°14'212.5
2018-Feb-24 18:59N 35°00' E 140°12'713.0
2018-Feb-24 18:27N 34°57' E 140°05'1212.7
2018-Feb-24 17:28N 34°51' E 139°51'1212.7
2018-Feb-24 16:32N 34°50' E 139°37'012.8
2018-Feb-24 16:30N 34°50' E 139°36'812.4
2018-Feb-24 15:52N 34°50' E 139°27'512.0
2018-Feb-24 15:28N 34°50' E 139°21'612.4
2018-Feb-24 14:59N 34°46' E 139°15'713.0
2018-Feb-24 14:27N 34°42' E 139°08'512.4
2018-Feb-24 14:00N 34°39' E 139°03'612.2
2018-Feb-24 13:30N 34°35' E 138°57'712.9
2018-Feb-24 12:59N 34°34' E 138°49'612.5
2018-Feb-24 12:29N 34°34' E 138°41'613.0
2018-Feb-24 12:00N 34°34' E 138°33'713.0
2018-Feb-24 11:28N 34°33' E 138°25'613.4
2018-Feb-24 11:00N 34°33' E 138°18'5013.8
2018-Feb-24 07:23N 34°33' E 137°17'513.4
2018-Feb-24 07:00N 34°32' E 137°11'1612.9
2018-Feb-24 05:46N 34°38' E 136°53'413.2
2018-Feb-24 05:26N 34°42' E 136°49'613.3
2018-Feb-24 05:00N 34°47' E 136°46'713.1
2018-Feb-24 04:30N 34°53' E 136°42'510.6
2018-Feb-24 04:00N 34°57' E 136°39'0 0.6
2018-Feb-24 03:25N 34°57' E 136°38'0 0.0
2018-Feb-24 03:00N 34°57' E 136°38'0 0.0
2018-Feb-24 02:29N 34°57' E 136°38'0 0.0
2018-Feb-24 02:00N 34°57' E 136°38'0 0.0
2018-Feb-24 01:30N 34°57' E 136°38'0 0.0
2018-Feb-24 01:00N 34°57' E 136°38'0 0.0
2018-Feb-24 00:29N 34°57' E 136°38'1 2.3
2018-Feb-24 00:00N 34°57' E 136°40'3 7.0
2018-Feb-23 23:30N 34°54' E 136°41'510.6
2018-Feb-23 22:59N 34°48' E 136°38'712.5
2018-Feb-23 22:23N 34°41' E 136°35'5 0.2
2018-Feb-23 01:07N 34°37' E 136°33'0 0.4
2018-Feb-23 01:00N 34°37' E 136°34'1210.8
2018-Feb-22 23:55N 34°36' E 136°48'1812.8
2018-Feb-22 22:31N 34°33' E 137°09'112.8
2018-Feb-22 22:28N 34°33' E 137°10'5512.5
2018-Feb-22 18:06N 34°33' E 138°16'2713.1
2018-Feb-22 16:04N 34°35' E 138°49'113.7
2018-Feb-22 15:59N 34°35' E 138°50'812.7
2018-Feb-22 15:21N 34°38' E 138°59'513.6
2018-Feb-22 15:00N 34°40' E 139°04'713.9
2018-Feb-22 14:28N 34°45' E 139°11'53 2.2
2018-Feb-21 14:06N 35°00' E 140°12'4 9.2
2018-Feb-21 13:41N 34°59' E 140°08'2 9.1
2018-Feb-21 13:30N 34°58' E 140°07'5 9.2
2018-Feb-21 13:00N 34°55' E 140°02'13 8.1
2018-Feb-21 11:27N 34°52' E 139°47'5 9.1
2018-Feb-21 10:54N 34°57' E 139°44'3 8.6
2018-Feb-21 10:29N 35°00' E 139°43'5 9.1
2018-Feb-21 09:57N 35°05' E 139°44'4 9.4
2018-Feb-21 09:30N 35°09' E 139°45'5 9.3
2018-Feb-21 09:00N 35°14' E 139°46'510.1
2018-Feb-21 08:30N 35°18' E 139°44'510.3
2018-Feb-21 08:00N 35°23' E 139°42'510.5
2018-Feb-21 07:30N 35°27' E 139°47'611.0
2018-Feb-21 07:00N 35°30' E 139°53'611.2
2018-Feb-21 06:30N 35°31' E 139°60'3 4.9
2018-Feb-21 05:59N 35°31' E 140°03'0 0.0
2018-Feb-21 05:30N 35°31' E 140°03'0 0.0
2018-Feb-21 05:00N 35°31' E 140°03'0 0.0
2018-Feb-21 04:26N 35°31' E 140°03'0 0.0
2018-Feb-21 03:59N 35°31' E 140°03'0 0.0
2018-Feb-21 03:25N 35°31' E 140°03'0 0.0
2018-Feb-21 02:57N 35°31' E 140°03'0 0.0
2018-Feb-21 02:24N 35°31' E 140°03'0 0.0
2018-Feb-21 01:57N 35°31' E 140°03'0 0.0
2018-Feb-21 01:28N 35°31' E 140°03'0 0.0
2018-Feb-21 00:58N 35°31' E 140°03'1 2.9
2018-Feb-21 00:30N 35°31' E 140°01'4 8.4
2018-Feb-21 00:00N 35°29' E 139°56'2 3.2
2018-Feb-20 23:28N 35°28' E 139°54'0 0.0
2018-Feb-20 22:55N 35°28' E 139°54'0 0.0
2018-Feb-20 22:22N 35°28' E 139°54'0 0.0
2018-Feb-20 21:43N 35°28' E 139°54'0 0.0
2018-Feb-20 21:28N 35°28' E 139°54'0 0.0
2018-Feb-20 20:58N 35°28' E 139°54'0 0.0
2018-Feb-20 20:24N 35°28' E 139°54'0 0.0
2018-Feb-20 19:55N 35°28' E 139°54'0 0.0
2018-Feb-20 19:30N 35°28' E 139°54'0 0.0
2018-Feb-20 19:01N 35°28' E 139°54'0 0.0
2018-Feb-20 18:28N 35°28' E 139°54'0 0.0
2018-Feb-20 17:58N 35°28' E 139°54'0 0.0
2018-Feb-20 17:30N 35°28' E 139°54'0 0.0
2018-Feb-20 17:00N 35°28' E 139°54'0 0.0
2018-Feb-20 16:24N 35°28' E 139°54'0 0.0
2018-Feb-20 15:55N 35°28' E 139°54'1 2.3
2018-Feb-20 15:30N 35°28' E 139°53'612.3
2018-Feb-20 15:00N 35°25' E 139°47'612.4
2018-Feb-20 14:30N 35°19' E 139°44'611.5
2018-Feb-20 13:58N 35°14' E 139°47'613.0
2018-Feb-20 13:30N 35°08' E 139°46'914.2
2018-Feb-20 12:53N 34°59' E 139°44'513.1
2018-Feb-20 12:30N 34°55' E 139°47'22 1.0
2018-Feb-19 14:57N 35°00' E 140°13'510.2
2018-Feb-19 14:27N 34°58' E 140°07'510.7
2018-Feb-19 14:00N 34°55' E 140°02'1210.8
2018-Feb-19 12:52N 34°52' E 139°48'12 9.6
2018-Feb-19 11:39N 35°03' E 139°43'210.5
2018-Feb-19 11:30N 35°05' E 139°44'510.5
2018-Feb-19 11:00N 35°10' E 139°45'510.9
2018-Feb-19 10:31N 35°15' E 139°46'612.5
2018-Feb-19 10:01N 35°21' E 139°43'611.9
2018-Feb-19 09:30N 35°26' E 139°45'4 8.5
2018-Feb-19 09:00N 35°30' E 139°46'1 0.1
2018-Feb-19 00:04N 35°30' E 139°45'0 0.0
2018-Feb-19 00:00N 35°30' E 139°45'2 4.3
2018-Feb-18 23:30N 35°30' E 139°48'2 3.5
2018-Feb-18 22:57N 35°29' E 139°46'0 0.1
2018-Feb-18 22:30N 35°29' E 139°46'0 0.0
2018-Feb-18 22:00N 35°29' E 139°46'0 0.0
2018-Feb-18 21:30N 35°29' E 139°46'0 0.1
2018-Feb-18 20:54N 35°29' E 139°46'0 0.0
2018-Feb-18 20:30N 35°29' E 139°46'0 0.1
2018-Feb-18 20:00N 35°29' E 139°46'0 0.1
2018-Feb-18 19:30N 35°29' E 139°46'0 0.0
2018-Feb-18 19:00N 35°29' E 139°46'0 0.0
2018-Feb-18 18:27N 35°29' E 139°46'0 0.0
2018-Feb-18 18:00N 35°29' E 139°46'0 0.0
2018-Feb-18 17:30N 35°29' E 139°46'0 0.0
2018-Feb-18 17:00N 35°29' E 139°46'0 0.0
2018-Feb-18 16:30N 35°29' E 139°46'0 0.0
2018-Feb-18 16:00N 35°29' E 139°46'0 0.0
2018-Feb-18 15:30N 35°29' E 139°46'0 0.0
2018-Feb-18 15:00N 35°29' E 139°46'0 0.0
2018-Feb-18 14:30N 35°29' E 139°46'3 6.3
2018-Feb-18 14:00N 35°26' E 139°46'612.1
2018-Feb-18 13:30N 35°20' E 139°44'611.3
2018-Feb-18 12:59N 35°14' E 139°47'612.1
2018-Feb-18 12:30N 35°08' E 139°46'712.8
2018-Feb-18 11:57N 35°01' E 139°44'611.4
2018-Feb-18 11:27N 34°56' E 139°46'22 1.0
2018-Feb-17 12:53N 35°00' E 140°12'411.5
2018-Feb-17 12:30N 34°58' E 140°08'611.4
2018-Feb-17 12:00N 34°55' E 140°02'17 8.3
2018-Feb-17 09:56N 35°04' E 139°44'512.6
2018-Feb-17 09:31N 35°09' E 139°45'612.7
2018-Feb-17 09:00N 35°15' E 139°46'612.8
2018-Feb-17 08:31N 35°21' E 139°42'612.7
2018-Feb-17 08:01N 35°27' E 139°43'4 7.0
2018-Feb-17 07:29N 35°30' E 139°45'0 0.0
2018-Feb-17 06:59N 35°30' E 139°45'0 0.0
2018-Feb-17 06:29N 35°30' E 139°45'0 0.0
2018-Feb-17 05:56N 35°30' E 139°45'0 0.0
2018-Feb-17 05:26N 35°30' E 139°45'0 0.0
2018-Feb-17 05:00N 35°30' E 139°45'0 0.0
2018-Feb-17 04:30N 35°30' E 139°45'0 0.0
2018-Feb-17 04:00N 35°30' E 139°45'0 0.0
2018-Feb-17 03:30N 35°30' E 139°45'0 0.0
2018-Feb-17 03:00N 35°30' E 139°45'0 0.0
2018-Feb-17 02:30N 35°30' E 139°45'3 5.2
2018-Feb-17 02:00N 35°30' E 139°48'5 9.0
2018-Feb-17 01:30N 35°26' E 139°46'1 2.7
2018-Feb-17 00:58N 35°24' E 139°45'0 0.0
2018-Feb-17 00:28N 35°24' E 139°45'0 0.0
2018-Feb-16 23:59N 35°24' E 139°45'0 0.0
2018-Feb-16 23:28N 35°24' E 139°45'0 0.0
2018-Feb-16 22:59N 35°24' E 139°45'0 0.0
2018-Feb-16 22:28N 35°24' E 139°45'0 0.0
2018-Feb-16 21:58N 35°24' E 139°45'0 0.0
2018-Feb-16 21:28N 35°24' E 139°45'0 0.0
2018-Feb-16 20:56N 35°24' E 139°45'0 0.0
2018-Feb-16 20:29N 35°24' E 139°45'0 0.0
2018-Feb-16 19:58N 35°24' E 139°45'0 0.1
2018-Feb-16 19:28N 35°24' E 139°45'0 0.0
2018-Feb-16 18:58N 35°24' E 139°45'0 0.0
2018-Feb-16 18:28N 35°24' E 139°45'0 0.0
2018-Feb-16 17:58N 35°24' E 139°45'0 0.0
2018-Feb-16 17:28N 35°24' E 139°45'0 0.1
2018-Feb-16 16:58N 35°24' E 139°45'0 0.0
2018-Feb-16 16:25N 35°24' E 139°45'0 0.0
2018-Feb-16 15:58N 35°24' E 139°45'0 0.0
2018-Feb-16 15:25N 35°24' E 139°45'0 0.0
2018-Feb-16 14:58N 35°24' E 139°45'2 4.4
2018-Feb-16 14:31N 35°22' E 139°45'611.1
2018-Feb-16 14:01N 35°17' E 139°45'611.7
2018-Feb-16 13:30N 35°11' E 139°47'612.9
2018-Feb-16 13:00N 35°05' E 139°45'22 0.9
2018-Feb-15 13:33N 35°01' E 140°11'211.7
2018-Feb-15 13:23N 34°59' E 140°09'511.6
2018-Feb-15 12:58N 34°57' E 140°04'511.5
2018-Feb-15 12:30N 34°54' E 139°59'17 8.4
2018-Feb-15 10:30N 35°05' E 139°44'613.0
2018-Feb-15 10:01N 35°11' E 139°46'612.6
2018-Feb-15 09:31N 35°18' E 139°44'612.9
2018-Feb-15 09:00N 35°24' E 139°42'611.5
2018-Feb-15 08:30N 35°30' E 139°43'1 2.1
2018-Feb-15 07:48N 35°30' E 139°45'0 0.0
2018-Feb-15 07:30N 35°30' E 139°45'0 0.0
2018-Feb-15 06:54N 35°30' E 139°45'0 0.0
2018-Feb-15 06:30N 35°30' E 139°45'0 0.0
2018-Feb-15 05:59N 35°30' E 139°45'0 0.0
2018-Feb-15 05:30N 35°30' E 139°45'0 0.0
2018-Feb-15 05:00N 35°30' E 139°45'0 0.0
2018-Feb-15 04:30N 35°30' E 139°45'0 0.0
2018-Feb-15 04:00N 35°30' E 139°45'0 0.0
2018-Feb-15 03:30N 35°30' E 139°45'0 0.0
2018-Feb-15 03:00N 35°30' E 139°45'2 4.2
2018-Feb-15 02:30N 35°30' E 139°47'4 8.3
2018-Feb-15 02:00N 35°26' E 139°47'612.0
2018-Feb-15 01:30N 35°20' E 139°45'510.0
2018-Feb-15 01:00N 35°16' E 139°47'510.5
2018-Feb-15 00:30N 35°10' E 139°47'5 9.9
2018-Feb-15 00:00N 35°06' E 139°46'711.6
2018-Feb-14 23:24N 34°59' E 139°44'15 5.2
2018-Feb-14 20:36N 34°57' E 140°01'4 9.0
2018-Feb-14 20:10N 35°00' E 140°04'4 8.4
2018-Feb-14 19:43N 35°02' E 140°09'  
Track history (hours):
 
Tides and Currents Weather Stations Pressure Air Temp Water Temp Dewpoint Dewpoint Depression Visibility Wind Speed Wind Dir Waves Ship Positions

Ryosui

Last reported at 2018-Feb-24 19:34 UTC. Time now 2018-Feb-25 13:21 UTC.
Position N 35°04' E 140°20'.

Length 67 m; draft 4.8 m.

Type: Tanker. MMSI: 431009833.

Date/timePositionNaut miles runAvg speedWind from/ knotsBaromVisibWave heightAir tempDewpointWater temp
2018-Feb-24 19:34N 35°04' E 140°20'512.6
2018-Feb-24 19:08N 35°01' E 140°14'212.5
2018-Feb-24 18:59N 35°00' E 140°12'713.0
2018-Feb-24 18:27N 34°57' E 140°05'1212.7
2018-Feb-24 17:28N 34°51' E 139°51'1212.7
2018-Feb-24 16:32N 34°50' E 139°37'012.8
2018-Feb-24 16:30N 34°50' E 139°36'812.4
2018-Feb-24 15:52N 34°50' E 139°27'512.0
2018-Feb-24 15:28N 34°50' E 139°21'612.4
2018-Feb-24 14:59N 34°46' E 139°15'713.0
2018-Feb-24 14:27N 34°42' E 139°08'512.4
2018-Feb-24 14:00N 34°39' E 139°03'612.2
2018-Feb-24 13:30N 34°35' E 138°57'712.9
2018-Feb-24 12:59N 34°34' E 138°49'612.5
2018-Feb-24 12:29N 34°34' E 138°41'613.0
2018-Feb-24 12:00N 34°34' E 138°33'713.0
2018-Feb-24 11:28N 34°33' E 138°25'613.4
2018-Feb-24 11:00N 34°33' E 138°18'5013.8
2018-Feb-24 07:23N 34°33' E 137°17'513.4
2018-Feb-24 07:00N 34°32' E 137°11'1612.9
2018-Feb-24 05:46N 34°38' E 136°53'413.2
2018-Feb-24 05:26N 34°42' E 136°49'613.3
2018-Feb-24 05:00N 34°47' E 136°46'713.1
2018-Feb-24 04:30N 34°53' E 136°42'510.6
2018-Feb-24 04:00N 34°57' E 136°39'0 0.6
2018-Feb-24 03:25N 34°57' E 136°38'0 0.0
2018-Feb-24 03:00N 34°57' E 136°38'0 0.0
2018-Feb-24 02:29N 34°57' E 136°38'0 0.0
2018-Feb-24 02:00N 34°57' E 136°38'0 0.0
2018-Feb-24 01:30N 34°57' E 136°38'0 0.0
2018-Feb-24 01:00N 34°57' E 136°38'0 0.0
2018-Feb-24 00:29N 34°57' E 136°38'1 2.3
2018-Feb-24 00:00N 34°57' E 136°40'3 7.0
2018-Feb-23 23:30N 34°54' E 136°41'510.6
2018-Feb-23 22:59N 34°48' E 136°38'712.5
2018-Feb-23 22:23N 34°41' E 136°35'5 0.2
2018-Feb-23 01:07N 34°37' E 136°33'0 0.4
2018-Feb-23 01:00N 34°37' E 136°34'1210.8
2018-Feb-22 23:55N 34°36' E 136°48'1812.8
2018-Feb-22 22:31N 34°33' E 137°09'112.8
2018-Feb-22 22:28N 34°33' E 137°10'5512.5
2018-Feb-22 18:06N 34°33' E 138°16'2713.1
2018-Feb-22 16:04N 34°35' E 138°49'113.7
2018-Feb-22 15:59N 34°35' E 138°50'812.7
2018-Feb-22 15:21N 34°38' E 138°59'513.6
2018-Feb-22 15:00N 34°40' E 139°04'713.9
2018-Feb-22 14:28N 34°45' E 139°11'53 2.2
2018-Feb-21 14:06N 35°00' E 140°12'4 9.2
2018-Feb-21 13:41N 34°59' E 140°08'2 9.1
2018-Feb-21 13:30N 34°58' E 140°07'5 9.2
2018-Feb-21 13:00N 34°55' E 140°02'13 8.1
2018-Feb-21 11:27N 34°52' E 139°47'5 9.1
2018-Feb-21 10:54N 34°57' E 139°44'3 8.6
2018-Feb-21 10:29N 35°00' E 139°43'5 9.1
2018-Feb-21 09:57N 35°05' E 139°44'4 9.4
2018-Feb-21 09:30N 35°09' E 139°45'5 9.3
2018-Feb-21 09:00N 35°14' E 139°46'510.1
2018-Feb-21 08:30N 35°18' E 139°44'510.3
2018-Feb-21 08:00N 35°23' E 139°42'510.5
2018-Feb-21 07:30N 35°27' E 139°47'611.0
2018-Feb-21 07:00N 35°30' E 139°53'611.2
2018-Feb-21 06:30N 35°31' E 139°60'3 4.9
2018-Feb-21 05:59N 35°31' E 140°03'0 0.0
2018-Feb-21 05:30N 35°31' E 140°03'0 0.0
2018-Feb-21 05:00N 35°31' E 140°03'0 0.0
2018-Feb-21 04:26N 35°31' E 140°03'0 0.0
2018-Feb-21 03:59N 35°31' E 140°03'0 0.0
2018-Feb-21 03:25N 35°31' E 140°03'0 0.0
2018-Feb-21 02:57N 35°31' E 140°03'0 0.0
2018-Feb-21 02:24N 35°31' E 140°03'0 0.0
2018-Feb-21 01:57N 35°31' E 140°03'0 0.0
2018-Feb-21 01:28N 35°31' E 140°03'0 0.0
2018-Feb-21 00:58N 35°31' E 140°03'1 2.9
2018-Feb-21 00:30N 35°31' E 140°01'4 8.4
2018-Feb-21 00:00N 35°29' E 139°56'2 3.2
2018-Feb-20 23:28N 35°28' E 139°54'0 0.0
2018-Feb-20 22:55N 35°28' E 139°54'0 0.0
2018-Feb-20 22:22N 35°28' E 139°54'0 0.0
2018-Feb-20 21:43N 35°28' E 139°54'0 0.0
2018-Feb-20 21:28N 35°28' E 139°54'0 0.0
2018-Feb-20 20:58N 35°28' E 139°54'0 0.0
2018-Feb-20 20:24N 35°28' E 139°54'0 0.0
2018-Feb-20 19:55N 35°28' E 139°54'0 0.0
2018-Feb-20 19:30N 35°28' E 139°54'0 0.0
2018-Feb-20 19:01N 35°28' E 139°54'0 0.0
2018-Feb-20 18:28N 35°28' E 139°54'0 0.0
2018-Feb-20 17:58N 35°28' E 139°54'0 0.0
2018-Feb-20 17:30N 35°28' E 139°54'0 0.0
2018-Feb-20 17:00N 35°28' E 139°54'0 0.0
2018-Feb-20 16:24N 35°28' E 139°54'0 0.0
2018-Feb-20 15:55N 35°28' E 139°54'1 2.3
2018-Feb-20 15:30N 35°28' E 139°53'612.3
2018-Feb-20 15:00N 35°25' E 139°47'612.4
2018-Feb-20 14:30N 35°19' E 139°44'611.5
2018-Feb-20 13:58N 35°14' E 139°47'613.0
2018-Feb-20 13:30N 35°08' E 139°46'914.2
2018-Feb-20 12:53N 34°59' E 139°44'513.1
2018-Feb-20 12:30N 34°55' E 139°47'22 1.0
2018-Feb-19 14:57N 35°00' E 140°13'510.2
2018-Feb-19 14:27N 34°58' E 140°07'510.7
2018-Feb-19 14:00N 34°55' E 140°02'1210.8
2018-Feb-19 12:52N 34°52' E 139°48'12 9.6
2018-Feb-19 11:39N 35°03' E 139°43'210.5
2018-Feb-19 11:30N 35°05' E 139°44'510.5
2018-Feb-19 11:00N 35°10' E 139°45'510.9
2018-Feb-19 10:31N 35°15' E 139°46'612.5
2018-Feb-19 10:01N 35°21' E 139°43'611.9
2018-Feb-19 09:30N 35°26' E 139°45'4 8.5
2018-Feb-19 09:00N 35°30' E 139°46'1 0.1
2018-Feb-19 00:04N 35°30' E 139°45'0 0.0
2018-Feb-19 00:00N 35°30' E 139°45'2 4.3
2018-Feb-18 23:30N 35°30' E 139°48'2 3.5
2018-Feb-18 22:57N 35°29' E 139°46'0 0.1
2018-Feb-18 22:30N 35°29' E 139°46'0 0.0
2018-Feb-18 22:00N 35°29' E 139°46'0 0.0
2018-Feb-18 21:30N 35°29' E 139°46'0 0.1
2018-Feb-18 20:54N 35°29' E 139°46'0 0.0
2018-Feb-18 20:30N 35°29' E 139°46'0 0.1
2018-Feb-18 20:00N 35°29' E 139°46'0 0.1
2018-Feb-18 19:30N 35°29' E 139°46'0 0.0
2018-Feb-18 19:00N 35°29' E 139°46'0 0.0
2018-Feb-18 18:27N 35°29' E 139°46'0 0.0
2018-Feb-18 18:00N 35°29' E 139°46'0 0.0
2018-Feb-18 17:30N 35°29' E 139°46'0 0.0
2018-Feb-18 17:00N 35°29' E 139°46'0 0.0
2018-Feb-18 16:30N 35°29' E 139°46'0 0.0
2018-Feb-18 16:00N 35°29' E 139°46'0 0.0
2018-Feb-18 15:30N 35°29' E 139°46'0 0.0
2018-Feb-18 15:00N 35°29' E 139°46'0 0.0
2018-Feb-18 14:30N 35°29' E 139°46'3 6.3
2018-Feb-18 14:00N 35°26' E 139°46'612.1
2018-Feb-18 13:30N 35°20' E 139°44'611.3
2018-Feb-18 12:59N 35°14' E 139°47'612.1
2018-Feb-18 12:30N 35°08' E 139°46'712.8
2018-Feb-18 11:57N 35°01' E 139°44'611.4
2018-Feb-18 11:27N 34°56' E 139°46'22 1.0
2018-Feb-17 12:53N 35°00' E 140°12'411.5
2018-Feb-17 12:30N 34°58' E 140°08'611.4
2018-Feb-17 12:00N 34°55' E 140°02'17 8.3
2018-Feb-17 09:56N 35°04' E 139°44'512.6
2018-Feb-17 09:31N 35°09' E 139°45'612.7
2018-Feb-17 09:00N 35°15' E 139°46'612.8
2018-Feb-17 08:31N 35°21' E 139°42'612.7
2018-Feb-17 08:01N 35°27' E 139°43'4 7.0
2018-Feb-17 07:29N 35°30' E 139°45'0 0.0
2018-Feb-17 06:59N 35°30' E 139°45'0 0.0
2018-Feb-17 06:29N 35°30' E 139°45'0 0.0
2018-Feb-17 05:56N 35°30' E 139°45'0 0.0
2018-Feb-17 05:26N 35°30' E 139°45'0 0.0
2018-Feb-17 05:00N 35°30' E 139°45'0 0.0
2018-Feb-17 04:30N 35°30' E 139°45'0 0.0
2018-Feb-17 04:00N 35°30' E 139°45'0 0.0
2018-Feb-17 03:30N 35°30' E 139°45'0 0.0
2018-Feb-17 03:00N 35°30' E 139°45'0 0.0
2018-Feb-17 02:30N 35°30' E 139°45'3 5.2
2018-Feb-17 02:00N 35°30' E 139°48'5 9.0
2018-Feb-17 01:30N 35°26' E 139°46'1 2.7
2018-Feb-17 00:58N 35°24' E 139°45'0 0.0
2018-Feb-17 00:28N 35°24' E 139°45'0 0.0
2018-Feb-16 23:59N 35°24' E 139°45'0 0.0
2018-Feb-16 23:28N 35°24' E 139°45'0 0.0
2018-Feb-16 22:59N 35°24' E 139°45'0 0.0
2018-Feb-16 22:28N 35°24' E 139°45'0 0.0
2018-Feb-16 21:58N 35°24' E 139°45'0 0.0
2018-Feb-16 21:28N 35°24' E 139°45'0 0.0
2018-Feb-16 20:56N 35°24' E 139°45'0 0.0
2018-Feb-16 20:29N 35°24' E 139°45'0 0.0
2018-Feb-16 19:58N 35°24' E 139°45'0 0.1
2018-Feb-16 19:28N 35°24' E 139°45'0 0.0
2018-Feb-16 18:58N 35°24' E 139°45'0 0.0
2018-Feb-16 18:28N 35°24' E 139°45'0 0.0
2018-Feb-16 17:58N 35°24' E 139°45'0 0.0
2018-Feb-16 17:28N 35°24' E 139°45'0 0.1
2018-Feb-16 16:58N 35°24' E 139°45'0 0.0
2018-Feb-16 16:25N 35°24' E 139°45'0 0.0
2018-Feb-16 15:58N 35°24' E 139°45'0 0.0
2018-Feb-16 15:25N 35°24' E 139°45'0 0.0
2018-Feb-16 14:58N 35°24' E 139°45'2 4.4
2018-Feb-16 14:31N 35°22' E 139°45'611.1
2018-Feb-16 14:01N 35°17' E 139°45'611.7
2018-Feb-16 13:30N 35°11' E 139°47'612.9
2018-Feb-16 13:00N 35°05' E 139°45'22 0.9
2018-Feb-15 13:33N 35°01' E 140°11'211.7
2018-Feb-15 13:23N 34°59' E 140°09'511.6
2018-Feb-15 12:58N 34°57' E 140°04'511.5
2018-Feb-15 12:30N 34°54' E 139°59'17 8.4
2018-Feb-15 10:30N 35°05' E 139°44'613.0
2018-Feb-15 10:01N 35°11' E 139°46'612.6
2018-Feb-15 09:31N 35°18' E 139°44'612.9
2018-Feb-15 09:00N 35°24' E 139°42'611.5
2018-Feb-15 08:30N 35°30' E 139°43'1 2.1
2018-Feb-15 07:48N 35°30' E 139°45'0 0.0
2018-Feb-15 07:30N 35°30' E 139°45'0 0.0
2018-Feb-15 06:54N 35°30' E 139°45'0 0.0
2018-Feb-15 06:30N 35°30' E 139°45'0 0.0
2018-Feb-15 05:59N 35°30' E 139°45'0 0.0
2018-Feb-15 05:30N 35°30' E 139°45'0 0.0
2018-Feb-15 05:00N 35°30' E 139°45'0 0.0
2018-Feb-15 04:30N 35°30' E 139°45'0 0.0
2018-Feb-15 04:00N 35°30' E 139°45'0 0.0
2018-Feb-15 03:30N 35°30' E 139°45'0 0.0
2018-Feb-15 03:00N 35°30' E 139°45'2 4.2
2018-Feb-15 02:30N 35°30' E 139°47'4 8.3
2018-Feb-15 02:00N 35°26' E 139°47'612.0
2018-Feb-15 01:30N 35°20' E 139°45'510.0
2018-Feb-15 01:00N 35°16' E 139°47'510.5
2018-Feb-15 00:30N 35°10' E 139°47'5 9.9
2018-Feb-15 00:00N 35°06' E 139°46'711.6
2018-Feb-14 23:24N 34°59' E 139°44'15 5.2
2018-Feb-14 20:36N 34°57' E 140°01'4 9.0
2018-Feb-14 20:10N 35°00' E 140°04'4 8.4
2018-Feb-14 19:43N 35°02' E 140°09'  

Dump ship's entire track history